Amy B — WDI7307 — position and weather

sailwx.info

Track history (hours):
 
Tides and Currents Weather Stations Pressure Air Temp Water Temp Dewpoint Dewpoint Depression Visibility Wind Speed Wind Dir Waves Ship Positions

Amy B

Owner: WCP, Inc, Wilsonville, OR. More information available from US FCC via Universal Licensing System and Coast Guard Vessel Documentation Center.

Last reported at 2018-Feb-24 14:49 UTC. Time now 2018-Feb-25 01:49 UTC.
Position N 45°48' W 122°51'.

Length 21 m; draft 2.5 m.

Type: Towing. MMSI: 367727410.

Date/timePositionNaut miles runAvg speedWind from/ knotsBaromVisibWave heightAir tempDewpointWater temp
2018-Feb-24 14:49N 45°48' W 122°51'0 0.2
2018-Feb-24 14:29N 45°48' W 122°51'2 4.1
2018-Feb-24 14:00N 45°49' W 122°49'2 4.4
2018-Feb-24 13:30N 45°51' W 122°47'714.4
2018-Feb-24 12:59N 45°44' W 122°46'2 5.0
2018-Feb-24 12:30N 45°41' W 122°47'3 6.1
2018-Feb-24 11:59N 45°39' W 122°44'0 0.0
2018-Feb-24 11:29N 45°39' W 122°44'0 0.0
2018-Feb-24 10:56N 45°39' W 122°44'0 0.0
2018-Feb-24 10:26N 45°39' W 122°44'0 0.0
2018-Feb-24 09:56N 45°39' W 122°44'0 0.0
2018-Feb-24 09:22N 45°39' W 122°44'0 0.0
2018-Feb-24 08:59N 45°39' W 122°44'0 0.0
2018-Feb-24 08:26N 45°39' W 122°44'0 0.0
2018-Feb-24 07:49N 45°39' W 122°44'0 0.0
2018-Feb-24 07:29N 45°39' W 122°44'0 0.0
2018-Feb-24 06:58N 45°39' W 122°44'0 0.0
2018-Feb-24 06:25N 45°39' W 122°44'0 0.0
2018-Feb-24 05:58N 45°39' W 122°44'0 0.0
2018-Feb-24 05:26N 45°39' W 122°44'0 0.0
2018-Feb-24 04:59N 45°39' W 122°44'0 0.0
2018-Feb-24 04:28N 45°39' W 122°44'0 0.1
2018-Feb-24 04:00N 45°39' W 122°43'2 3.1
2018-Feb-24 03:30N 45°39' W 122°45'2 4.8
2018-Feb-24 03:01N 45°42' W 122°46'2 4.6
2018-Feb-24 02:31N 45°44' W 122°46'2 4.4
2018-Feb-24 02:00N 45°46' W 122°46'5 5.8
2018-Feb-24 01:12N 45°51' W 122°47'0 0.1
2018-Feb-24 00:48N 45°51' W 122°47'1 2.4
2018-Feb-24 00:30N 45°51' W 122°48'3 6.6
2018-Feb-24 00:00N 45°48' W 122°50'1 2.2
2018-Feb-23 23:28N 45°48' W 122°51'0 0.1
2018-Feb-23 22:42N 45°48' W 122°51'0 0.0
2018-Feb-23 22:31N 45°48' W 122°51'0 0.0
2018-Feb-23 21:58N 45°48' W 122°51'  
2018-Feb-21 04:49N 45°48' W 122°51'0 0.2
2018-Feb-21 04:30N 45°48' W 122°51'2 3.5
2018-Feb-21 04:01N 45°49' W 122°50'3 5.0
2018-Feb-21 03:30N 45°51' W 122°47'4 8.8
2018-Feb-21 03:00N 45°47' W 122°46'5 9.5
2018-Feb-21 02:31N 45°42' W 122°46'4 7.3
2018-Feb-21 02:00N 45°39' W 122°44'0 0.0
2018-Feb-21 01:30N 45°39' W 122°44'0 0.0
2018-Feb-21 01:00N 45°39' W 122°44'0 0.0
2018-Feb-21 00:26N 45°39' W 122°44'0 0.0
2018-Feb-20 23:00N 45°39' W 122°44'0 0.0
2018-Feb-20 22:12N 45°39' W 122°44'0 0.0
2018-Feb-20 21:58N 45°39' W 122°44'0 0.1
2018-Feb-20 21:30N 45°39' W 122°44'2 4.2
2018-Feb-20 21:00N 45°40' W 122°46'2 4.7
2018-Feb-20 20:30N 45°42' W 122°46'2 4.9
2018-Feb-20 20:00N 45°45' W 122°46'2 5.0
2018-Feb-20 19:30N 45°47' W 122°47'2 4.9
2018-Feb-20 19:00N 45°50' W 122°48'2 3.7
2018-Feb-20 18:30N 45°51' W 122°48'3 6.6
2018-Feb-20 18:00N 45°48' W 122°49'1 2.3
2018-Feb-20 17:28N 45°48' W 122°51'0 0.2
2018-Feb-20 16:59N 45°48' W 122°51'0 0.0
2018-Feb-20 16:29N 45°48' W 122°51'0 0.0
2018-Feb-20 15:59N 45°48' W 122°51'0 0.0
2018-Feb-20 15:20N 45°48' W 122°51'0 0.0
2018-Feb-20 14:59N 45°48' W 122°51'0 0.0
2018-Feb-20 14:26N 45°48' W 122°51'0 0.0
2018-Feb-20 13:59N 45°48' W 122°51'0 0.0
2018-Feb-20 13:29N 45°48' W 122°51'0 0.0
2018-Feb-20 12:59N 45°48' W 122°51'0 0.0
2018-Feb-20 12:23N 45°48' W 122°51'0 0.0
2018-Feb-20 11:59N 45°48' W 122°51'0 0.0
2018-Feb-20 11:29N 45°48' W 122°51'0 0.0
2018-Feb-20 10:53N 45°48' W 122°51'0 0.0
2018-Feb-20 10:29N 45°48' W 122°51'0 0.0
2018-Feb-20 09:59N 45°48' W 122°51'0 0.0
2018-Feb-20 09:29N 45°48' W 122°51'0 0.0
2018-Feb-20 08:59N 45°48' W 122°51'0 0.0
2018-Feb-20 08:26N 45°48' W 122°51'0 0.0
2018-Feb-20 07:59N 45°48' W 122°51'0 0.0
2018-Feb-20 07:29N 45°48' W 122°51'0 0.9
2018-Feb-20 07:00N 45°48' W 122°50'3 5.2
2018-Feb-20 06:30N 45°50' W 122°48'1 2.1
2018-Feb-20 06:00N 45°49' W 122°48'5 9.9
2018-Feb-20 05:30N 45°45' W 122°46'5 9.8
2018-Feb-20 05:01N 45°40' W 122°46'4 7.6
2018-Feb-20 04:31N 45°36' W 122°47'3 5.4
2018-Feb-20 03:58N 45°34' W 122°44'0 0.1
2018-Feb-20 03:28N 45°34' W 122°44'0 0.0
2018-Feb-20 02:55N 45°34' W 122°44'0 0.0
2018-Feb-20 02:28N 45°34' W 122°44'0 0.0
2018-Feb-20 01:58N 45°34' W 122°44'0 0.0
2018-Feb-20 01:28N 45°34' W 122°44'0 0.0
2018-Feb-20 00:58N 45°34' W 122°44'0 0.0
2018-Feb-20 00:19N 45°34' W 122°44'0 0.0
2018-Feb-19 23:52N 45°34' W 122°44'0 0.0
2018-Feb-19 23:28N 45°34' W 122°44'0 0.1
2018-Feb-19 22:56N 45°34' W 122°44'1 3.0
2018-Feb-19 22:31N 45°35' W 122°45'3 5.8
2018-Feb-19 22:00N 45°37' W 122°48'3 5.9
2018-Feb-19 21:30N 45°40' W 122°46'3 5.0
2018-Feb-19 21:00N 45°43' W 122°46'2 4.9
2018-Feb-19 20:30N 45°45' W 122°46'2 5.0
2018-Feb-19 20:00N 45°47' W 122°47'4 4.1
2018-Feb-19 18:58N 45°52' W 122°48'4 5.1
2018-Feb-19 18:08N 45°48' W 122°50'0 1.8
2018-Feb-19 17:58N 45°48' W 122°51'0 0.0
2018-Feb-19 17:22N 45°48' W 122°51'0 0.1
2018-Feb-19 17:00N 45°48' W 122°51'  
Track history (hours):
 
Tides and Currents Weather Stations Pressure Air Temp Water Temp Dewpoint Dewpoint Depression Visibility Wind Speed Wind Dir Waves Ship Positions

Amy B

Owner: WCP, Inc, Wilsonville, OR. More information available from US FCC via Universal Licensing System and Coast Guard Vessel Documentation Center.

Last reported at 2018-Feb-24 14:49 UTC. Time now 2018-Feb-25 01:49 UTC.
Position N 45°48' W 122°51'.

Length 21 m; draft 2.5 m.

Type: Towing. MMSI: 367727410.

Date/timePositionNaut miles runAvg speedWind from/ knotsBaromVisibWave heightAir tempDewpointWater temp
2018-Feb-24 14:49N 45°48' W 122°51'0 0.2
2018-Feb-24 14:29N 45°48' W 122°51'2 4.1
2018-Feb-24 14:00N 45°49' W 122°49'2 4.4
2018-Feb-24 13:30N 45°51' W 122°47'714.4
2018-Feb-24 12:59N 45°44' W 122°46'2 5.0
2018-Feb-24 12:30N 45°41' W 122°47'3 6.1
2018-Feb-24 11:59N 45°39' W 122°44'0 0.0
2018-Feb-24 11:29N 45°39' W 122°44'0 0.0
2018-Feb-24 10:56N 45°39' W 122°44'0 0.0
2018-Feb-24 10:26N 45°39' W 122°44'0 0.0
2018-Feb-24 09:56N 45°39' W 122°44'0 0.0
2018-Feb-24 09:22N 45°39' W 122°44'0 0.0
2018-Feb-24 08:59N 45°39' W 122°44'0 0.0
2018-Feb-24 08:26N 45°39' W 122°44'0 0.0
2018-Feb-24 07:49N 45°39' W 122°44'0 0.0
2018-Feb-24 07:29N 45°39' W 122°44'0 0.0
2018-Feb-24 06:58N 45°39' W 122°44'0 0.0
2018-Feb-24 06:25N 45°39' W 122°44'0 0.0
2018-Feb-24 05:58N 45°39' W 122°44'0 0.0
2018-Feb-24 05:26N 45°39' W 122°44'0 0.0
2018-Feb-24 04:59N 45°39' W 122°44'0 0.0
2018-Feb-24 04:28N 45°39' W 122°44'0 0.1
2018-Feb-24 04:00N 45°39' W 122°43'2 3.1
2018-Feb-24 03:30N 45°39' W 122°45'2 4.8
2018-Feb-24 03:01N 45°42' W 122°46'2 4.6
2018-Feb-24 02:31N 45°44' W 122°46'2 4.4
2018-Feb-24 02:00N 45°46' W 122°46'5 5.8
2018-Feb-24 01:12N 45°51' W 122°47'0 0.1
2018-Feb-24 00:48N 45°51' W 122°47'1 2.4
2018-Feb-24 00:30N 45°51' W 122°48'3 6.6
2018-Feb-24 00:00N 45°48' W 122°50'1 2.2
2018-Feb-23 23:28N 45°48' W 122°51'0 0.1
2018-Feb-23 22:42N 45°48' W 122°51'0 0.0
2018-Feb-23 22:31N 45°48' W 122°51'0 0.0
2018-Feb-23 21:58N 45°48' W 122°51'  
2018-Feb-21 04:49N 45°48' W 122°51'0 0.2
2018-Feb-21 04:30N 45°48' W 122°51'2 3.5
2018-Feb-21 04:01N 45°49' W 122°50'3 5.0
2018-Feb-21 03:30N 45°51' W 122°47'4 8.8
2018-Feb-21 03:00N 45°47' W 122°46'5 9.5
2018-Feb-21 02:31N 45°42' W 122°46'4 7.3
2018-Feb-21 02:00N 45°39' W 122°44'0 0.0
2018-Feb-21 01:30N 45°39' W 122°44'0 0.0
2018-Feb-21 01:00N 45°39' W 122°44'0 0.0
2018-Feb-21 00:26N 45°39' W 122°44'0 0.0
2018-Feb-20 23:00N 45°39' W 122°44'0 0.0
2018-Feb-20 22:12N 45°39' W 122°44'0 0.0
2018-Feb-20 21:58N 45°39' W 122°44'0 0.1
2018-Feb-20 21:30N 45°39' W 122°44'2 4.2
2018-Feb-20 21:00N 45°40' W 122°46'2 4.7
2018-Feb-20 20:30N 45°42' W 122°46'2 4.9
2018-Feb-20 20:00N 45°45' W 122°46'2 5.0
2018-Feb-20 19:30N 45°47' W 122°47'2 4.9
2018-Feb-20 19:00N 45°50' W 122°48'2 3.7
2018-Feb-20 18:30N 45°51' W 122°48'3 6.6
2018-Feb-20 18:00N 45°48' W 122°49'1 2.3
2018-Feb-20 17:28N 45°48' W 122°51'0 0.2
2018-Feb-20 16:59N 45°48' W 122°51'0 0.0
2018-Feb-20 16:29N 45°48' W 122°51'0 0.0
2018-Feb-20 15:59N 45°48' W 122°51'0 0.0
2018-Feb-20 15:20N 45°48' W 122°51'0 0.0
2018-Feb-20 14:59N 45°48' W 122°51'0 0.0
2018-Feb-20 14:26N 45°48' W 122°51'0 0.0
2018-Feb-20 13:59N 45°48' W 122°51'0 0.0
2018-Feb-20 13:29N 45°48' W 122°51'0 0.0
2018-Feb-20 12:59N 45°48' W 122°51'0 0.0
2018-Feb-20 12:23N 45°48' W 122°51'0 0.0
2018-Feb-20 11:59N 45°48' W 122°51'0 0.0
2018-Feb-20 11:29N 45°48' W 122°51'0 0.0
2018-Feb-20 10:53N 45°48' W 122°51'0 0.0
2018-Feb-20 10:29N 45°48' W 122°51'0 0.0
2018-Feb-20 09:59N 45°48' W 122°51'0 0.0
2018-Feb-20 09:29N 45°48' W 122°51'0 0.0
2018-Feb-20 08:59N 45°48' W 122°51'0 0.0
2018-Feb-20 08:26N 45°48' W 122°51'0 0.0
2018-Feb-20 07:59N 45°48' W 122°51'0 0.0
2018-Feb-20 07:29N 45°48' W 122°51'0 0.9
2018-Feb-20 07:00N 45°48' W 122°50'3 5.2
2018-Feb-20 06:30N 45°50' W 122°48'1 2.1
2018-Feb-20 06:00N 45°49' W 122°48'5 9.9
2018-Feb-20 05:30N 45°45' W 122°46'5 9.8
2018-Feb-20 05:01N 45°40' W 122°46'4 7.6
2018-Feb-20 04:31N 45°36' W 122°47'3 5.4
2018-Feb-20 03:58N 45°34' W 122°44'0 0.1
2018-Feb-20 03:28N 45°34' W 122°44'0 0.0
2018-Feb-20 02:55N 45°34' W 122°44'0 0.0
2018-Feb-20 02:28N 45°34' W 122°44'0 0.0
2018-Feb-20 01:58N 45°34' W 122°44'0 0.0
2018-Feb-20 01:28N 45°34' W 122°44'0 0.0
2018-Feb-20 00:58N 45°34' W 122°44'0 0.0
2018-Feb-20 00:19N 45°34' W 122°44'0 0.0
2018-Feb-19 23:52N 45°34' W 122°44'0 0.0
2018-Feb-19 23:28N 45°34' W 122°44'0 0.1
2018-Feb-19 22:56N 45°34' W 122°44'1 3.0
2018-Feb-19 22:31N 45°35' W 122°45'3 5.8
2018-Feb-19 22:00N 45°37' W 122°48'3 5.9
2018-Feb-19 21:30N 45°40' W 122°46'3 5.0
2018-Feb-19 21:00N 45°43' W 122°46'2 4.9
2018-Feb-19 20:30N 45°45' W 122°46'2 5.0
2018-Feb-19 20:00N 45°47' W 122°47'4 4.1
2018-Feb-19 18:58N 45°52' W 122°48'4 5.1
2018-Feb-19 18:08N 45°48' W 122°50'0 1.8
2018-Feb-19 17:58N 45°48' W 122°51'0 0.0
2018-Feb-19 17:22N 45°48' W 122°51'0 0.1
2018-Feb-19 17:00N 45°48' W 122°51'  

Dump ship's entire track history